sensor_id;sensor_type;location;lat;lon;timestamp;P1;durP1;ratioP1;P2;durP2;ratioP2
14143;SDS011;7152;48.348;10.980;2023-04-25T00:01:00;4.17;;;3.77;;
14143;SDS011;7152;48.348;10.980;2023-04-25T00:03:27;4.43;;;3.70;;
14143;SDS011;7152;48.348;10.980;2023-04-25T00:05:54;4.20;;;3.80;;
14143;SDS011;7152;48.348;10.980;2023-04-25T00:08:21;3.97;;;3.67;;
14143;SDS011;7152;48.348;10.980;2023-04-25T00:10:47;5.80;;;3.70;;
14143;SDS011;7152;48.348;10.980;2023-04-25T00:13:14;4.73;;;3.67;;
14143;SDS011;7152;48.348;10.980;2023-04-25T00:15:39;3.63;;;3.33;;
14143;SDS011;7152;48.348;10.980;2023-04-25T00:18:06;4.07;;;3.63;;
14143;SDS011;7152;48.348;10.980;2023-04-25T00:20:32;4.87;;;3.90;;
14143;SDS011;7152;48.348;10.980;2023-04-25T00:22:58;5.07;;;3.73;;
14143;SDS011;7152;48.348;10.980;2023-04-25T00:25:23;4.67;;;3.77;;
14143;SDS011;7152;48.348;10.980;2023-04-25T00:27:49;4.13;;;3.57;;
14143;SDS011;7152;48.348;10.980;2023-04-25T00:30:15;4.27;;;3.87;;
14143;SDS011;7152;48.348;10.980;2023-04-25T00:32:41;4.27;;;3.87;;
14143;SDS011;7152;48.348;10.980;2023-04-25T00:35:06;4.13;;;3.73;;
14143;SDS011;7152;48.348;10.980;2023-04-25T00:37:32;4.83;;;3.80;;
14143;SDS011;7152;48.348;10.980;2023-04-25T01:00:11;4.67;;;4.10;;
14143;SDS011;7152;48.348;10.980;2023-04-25T01:02:39;4.10;;;3.80;;
14143;SDS011;7152;48.348;10.980;2023-04-25T01:05:06;5.57;;;4.23;;
14143;SDS011;7152;48.348;10.980;2023-04-25T01:07:33;4.53;;;4.13;;
14143;SDS011;7152;48.348;10.980;2023-04-25T01:09:59;5.30;;;4.23;;
14143;SDS011;7152;48.348;10.980;2023-04-25T01:12:25;6.17;;;4.43;;
14143;SDS011;7152;48.348;10.980;2023-04-25T01:14:50;5.13;;;4.63;;
14143;SDS011;7152;48.348;10.980;2023-04-25T01:17:17;5.60;;;4.47;;
14143;SDS011;7152;48.348;10.980;2023-04-25T01:19:43;4.30;;;3.90;;
14143;SDS011;7152;48.348;10.980;2023-04-25T01:22:12;4.30;;;3.80;;
14143;SDS011;7152;48.348;10.980;2023-04-25T01:24:39;4.50;;;4.10;;
14143;SDS011;7152;48.348;10.980;2023-04-25T01:27:05;4.10;;;3.70;;
14143;SDS011;7152;48.348;10.980;2023-04-25T01:29:31;4.30;;;3.90;;
14143;SDS011;7152;48.348;10.980;2023-04-25T01:31:58;3.87;;;3.57;;
14143;SDS011;7152;48.348;10.980;2023-04-25T01:34:24;4.57;;;4.07;;
14143;SDS011;7152;48.348;10.980;2023-04-25T01:36:50;4.67;;;4.27;;
14143;SDS011;7152;48.348;10.980;2023-04-25T01:39:17;3.80;;;3.50;;
14143;SDS011;7152;48.348;10.980;2023-04-25T01:41:43;4.40;;;4.00;;
14143;SDS011;7152;48.348;10.980;2023-04-25T01:44:09;4.47;;;3.70;;
14143;SDS011;7152;48.348;10.980;2023-04-25T01:46:35;4.80;;;4.40;;
14143;SDS011;7152;48.348;10.980;2023-04-25T01:49:01;6.90;;;4.93;;
14143;SDS011;7152;48.348;10.980;2023-04-25T01:51:27;4.60;;;4.20;;
14143;SDS011;7152;48.348;10.980;2023-04-25T01:53:53;4.93;;;4.50;;
14143;SDS011;7152;48.348;10.980;2023-04-25T01:56:20;4.80;;;4.20;;
14143;SDS011;7152;48.348;10.980;2023-04-25T01:58:45;4.97;;;3.97;;
14143;SDS011;7152;48.348;10.980;2023-04-25T02:01:11;3.90;;;3.60;;
14143;SDS011;7152;48.348;10.980;2023-04-25T02:03:37;4.37;;;3.97;;
14143;SDS011;7152;48.348;10.980;2023-04-25T02:06:02;4.50;;;4.10;;
14143;SDS011;7152;48.348;10.980;2023-04-25T02:08:28;5.97;;;4.20;;
14143;SDS011;7152;48.348;10.980;2023-04-25T02:10:55;4.40;;;4.00;;
14143;SDS011;7152;48.348;10.980;2023-04-25T02:13:20;5.57;;;4.93;;
14143;SDS011;7152;48.348;10.980;2023-04-25T02:15:46;4.97;;;4.53;;
14143;SDS011;7152;48.348;10.980;2023-04-25T02:18:12;4.63;;;4.23;;
14143;SDS011;7152;48.348;10.980;2023-04-25T02:20:38;6.80;;;4.37;;
14143;SDS011;7152;48.348;10.980;2023-04-25T02:23:03;4.17;;;3.77;;
14143;SDS011;7152;48.348;10.980;2023-04-25T02:25:29;4.63;;;4.13;;
14143;SDS011;7152;48.348;10.980;2023-04-25T02:27:54;4.80;;;3.87;;
14143;SDS011;7152;48.348;10.980;2023-04-25T02:30:20;4.60;;;4.20;;
14143;SDS011;7152;48.348;10.980;2023-04-25T02:32:46;4.57;;;3.73;;
14143;SDS011;7152;48.348;10.980;2023-04-25T02:35:11;4.67;;;3.60;;
14143;SDS011;7152;48.348;10.980;2023-04-25T02:37:37;4.17;;;3.87;;
14143;SDS011;7152;48.348;10.980;2023-04-25T02:40:04;5.10;;;4.03;;
14143;SDS011;7152;48.348;10.980;2023-04-25T02:42:30;4.00;;;3.57;;
14143;SDS011;7152;48.348;10.980;2023-04-25T02:44:56;5.40;;;4.30;;
14143;SDS011;7152;48.348;10.980;2023-04-25T02:47:22;4.70;;;3.90;;
14143;SDS011;7152;48.348;10.980;2023-04-25T02:49:47;4.67;;;4.27;;
14143;SDS011;7152;48.348;10.980;2023-04-25T02:52:13;4.53;;;3.63;;
14143;SDS011;7152;48.348;10.980;2023-04-25T02:54:39;4.03;;;3.60;;
14143;SDS011;7152;48.348;10.980;2023-04-25T02:57:05;4.90;;;4.13;;
14143;SDS011;7152;48.348;10.980;2023-04-25T02:59:31;3.90;;;3.60;;
14143;SDS011;7152;48.348;10.980;2023-04-25T03:01:57;4.23;;;3.80;;
14143;SDS011;7152;48.348;10.980;2023-04-25T03:04:23;5.00;;;4.50;;
14143;SDS011;7152;48.348;10.980;2023-04-25T03:06:49;4.20;;;3.87;;
14143;SDS011;7152;48.348;10.980;2023-04-25T03:09:15;5.03;;;3.90;;
14143;SDS011;7152;48.348;10.980;2023-04-25T03:11:41;5.57;;;3.77;;
14143;SDS011;7152;48.348;10.980;2023-04-25T03:14:06;5.80;;;3.70;;
14143;SDS011;7152;48.348;10.980;2023-04-25T03:16:32;6.27;;;4.00;;
14143;SDS011;7152;48.348;10.980;2023-04-25T03:18:58;5.10;;;4.07;;
14143;SDS011;7152;48.348;10.980;2023-04-25T03:21:24;4.80;;;4.40;;
14143;SDS011;7152;48.348;10.980;2023-04-25T03:23:50;4.73;;;4.10;;
14143;SDS011;7152;48.348;10.980;2023-04-25T03:26:15;4.10;;;3.77;;
14143;SDS011;7152;48.348;10.980;2023-04-25T03:28:41;5.07;;;3.73;;
14143;SDS011;7152;48.348;10.980;2023-04-25T03:31:07;5.63;;;3.87;;
14143;SDS011;7152;48.348;10.980;2023-04-25T03:33:32;3.87;;;3.57;;
14143;SDS011;7152;48.348;10.980;2023-04-25T03:35:58;5.30;;;3.80;;
14143;SDS011;7152;48.348;10.980;2023-04-25T03:38:23;4.67;;;4.17;;
14143;SDS011;7152;48.348;10.980;2023-04-25T03:40:49;4.13;;;3.80;;
14143;SDS011;7152;48.348;10.980;2023-04-25T03:43:16;4.20;;;3.80;;
14143;SDS011;7152;48.348;10.980;2023-04-25T03:45:42;5.67;;;4.20;;
14143;SDS011;7152;48.348;10.980;2023-04-25T03:48:07;4.33;;;3.83;;
14143;SDS011;7152;48.348;10.980;2023-04-25T03:50:33;4.87;;;4.37;;
14143;SDS011;7152;48.348;10.980;2023-04-25T03:52:59;5.30;;;4.00;;
14143;SDS011;7152;48.348;10.980;2023-04-25T03:55:24;4.50;;;4.07;;
14143;SDS011;7152;48.348;10.980;2023-04-25T03:57:50;4.40;;;4.00;;
14143;SDS011;7152;48.348;10.980;2023-04-25T04:00:16;5.13;;;4.50;;
14143;SDS011;7152;48.348;10.980;2023-04-25T04:02:41;4.57;;;4.17;;
14143;SDS011;7152;48.348;10.980;2023-04-25T04:05:07;5.57;;;3.70;;
14143;SDS011;7152;48.348;10.980;2023-04-25T04:07:33;4.97;;;3.27;;
14143;SDS011;7152;48.348;10.980;2023-04-25T04:10:04;4.87;;;3.97;;
14143;SDS011;7152;48.348;10.980;2023-04-25T04:12:36;4.37;;;3.97;;
14143;SDS011;7152;48.348;10.980;2023-04-25T04:15:03;4.97;;;4.10;;
14143;SDS011;7152;48.348;10.980;2023-04-25T04:17:29;4.77;;;4.33;;
14143;SDS011;7152;48.348;10.980;2023-04-25T04:19:55;5.03;;;3.83;;
14143;SDS011;7152;48.348;10.980;2023-04-25T04:22:21;4.37;;;3.97;;
14143;SDS011;7152;48.348;10.980;2023-04-25T04:24:47;4.20;;;3.63;;
14143;SDS011;7152;48.348;10.980;2023-04-25T04:27:15;4.20;;;3.80;;
14143;SDS011;7152;48.348;10.980;2023-04-25T04:29:44;5.10;;;4.07;;
14143;SDS011;7152;48.348;10.980;2023-04-25T04:32:10;4.53;;;3.53;;
14143;SDS011;7152;48.348;10.980;2023-04-25T04:34:38;4.90;;;3.60;;
14143;SDS011;7152;48.348;10.980;2023-04-25T04:37:04;4.27;;;3.20;;
14143;SDS011;7152;48.348;10.980;2023-04-25T04:39:31;4.20;;;3.30;;
14143;SDS011;7152;48.348;10.980;2023-04-25T04:42:01;4.50;;;3.27;;
14143;SDS011;7152;48.348;10.980;2023-04-25T04:44:27;3.90;;;3.27;;
14143;SDS011;7152;48.348;10.980;2023-04-25T04:46:53;3.27;;;2.97;;
14143;SDS011;7152;48.348;10.980;2023-04-25T04:49:19;2.97;;;2.73;;
14143;SDS011;7152;48.348;10.980;2023-04-25T04:51:45;4.33;;;3.23;;
14143;SDS011;7152;48.348;10.980;2023-04-25T04:54:11;4.27;;;2.73;;
14143;SDS011;7152;48.348;10.980;2023-04-25T04:56:37;3.33;;;2.70;;
14143;SDS011;7152;48.348;10.980;2023-04-25T04:59:03;2.80;;;2.60;;
14143;SDS011;7152;48.348;10.980;2023-04-25T05:01:29;2.40;;;2.20;;
14143;SDS011;7152;48.348;10.980;2023-04-25T05:03:57;2.87;;;2.67;;
14143;SDS011;7152;48.348;10.980;2023-04-25T05:06:27;2.63;;;2.43;;
14143;SDS011;7152;48.348;10.980;2023-04-25T05:08:56;3.10;;;2.70;;
14143;SDS011;7152;48.348;10.980;2023-04-25T05:11:22;2.57;;;2.37;;
14143;SDS011;7152;48.348;10.980;2023-04-25T05:13:52;3.00;;;2.70;;
14143;SDS011;7152;48.348;10.980;2023-04-25T05:16:18;3.13;;;2.80;;
14143;SDS011;7152;48.348;10.980;2023-04-25T05:18:43;3.17;;;2.87;;
14143;SDS011;7152;48.348;10.980;2023-04-25T05:21:09;2.70;;;2.50;;
14143;SDS011;7152;48.348;10.980;2023-04-25T05:23:35;4.80;;;3.10;;
14143;SDS011;7152;48.348;10.980;2023-04-25T05:26:00;4.13;;;2.90;;
14143;SDS011;7152;48.348;10.980;2023-04-25T05:28:26;4.17;;;3.20;;
14143;SDS011;7152;48.348;10.980;2023-04-25T05:30:52;4.07;;;3.27;;
14143;SDS011;7152;48.348;10.980;2023-04-25T05:33:18;3.10;;;2.80;;
14143;SDS011;7152;48.348;10.980;2023-04-25T05:35:44;3.80;;;3.40;;
14143;SDS011;7152;48.348;10.980;2023-04-25T05:38:09;3.53;;;2.97;;
14143;SDS011;7152;48.348;10.980;2023-04-25T05:40:35;4.30;;;3.27;;
14143;SDS011;7152;48.348;10.980;2023-04-25T05:43:01;3.40;;;3.10;;
14143;SDS011;7152;48.348;10.980;2023-04-25T05:45:27;6.07;;;3.57;;
14143;SDS011;7152;48.348;10.980;2023-04-25T05:47:52;5.07;;;3.30;;
14143;SDS011;7152;48.348;10.980;2023-04-25T05:50:18;3.80;;;3.33;;
14143;SDS011;7152;48.348;10.980;2023-04-25T05:52:43;4.63;;;3.23;;
14143;SDS011;7152;48.348;10.980;2023-04-25T05:55:09;3.97;;;3.10;;
14143;SDS011;7152;48.348;10.980;2023-04-25T05:57:34;4.20;;;2.97;;
14143;SDS011;7152;48.348;10.980;2023-04-25T06:00:00;3.67;;;3.10;;
14143;SDS011;7152;48.348;10.980;2023-04-25T06:02:26;3.63;;;2.77;;
14143;SDS011;7152;48.348;10.980;2023-04-25T06:04:52;4.77;;;3.00;;
14143;SDS011;7152;48.348;10.980;2023-04-25T06:07:18;3.80;;;2.90;;
14143;SDS011;7152;48.348;10.980;2023-04-25T06:09:44;4.73;;;3.30;;
14143;SDS011;7152;48.348;10.980;2023-04-25T06:12:10;8.87;;;2.93;;
14143;SDS011;7152;48.348;10.980;2023-04-25T06:14:36;3.03;;;2.77;;
14143;SDS011;7152;48.348;10.980;2023-04-25T06:17:02;3.93;;;2.60;;
14143;SDS011;7152;48.348;10.980;2023-04-25T06:19:33;6.37;;;3.60;;
14143;SDS011;7152;48.348;10.980;2023-04-25T06:22:00;4.30;;;2.67;;
14143;SDS011;7152;48.348;10.980;2023-04-25T06:24:26;3.63;;;2.50;;
14143;SDS011;7152;48.348;10.980;2023-04-25T06:26:52;5.43;;;2.50;;
14143;SDS011;7152;48.348;10.980;2023-04-25T06:29:17;4.10;;;2.23;;
14143;SDS011;7152;48.348;10.980;2023-04-25T06:31:43;3.67;;;2.57;;
14143;SDS011;7152;48.348;10.980;2023-04-25T06:34:09;2.60;;;2.40;;
14143;SDS011;7152;48.348;10.980;2023-04-25T06:36:35;2.70;;;2.50;;
14143;SDS011;7152;48.348;10.980;2023-04-25T06:39:00;3.73;;;2.00;;
14143;SDS011;7152;48.348;10.980;2023-04-25T06:41:26;3.30;;;2.43;;
14143;SDS011;7152;48.348;10.980;2023-04-25T06:43:51;3.07;;;2.23;;
14143;SDS011;7152;48.348;10.980;2023-04-25T06:46:17;4.63;;;2.40;;
14143;SDS011;7152;48.348;10.980;2023-04-25T06:48:43;4.17;;;2.17;;
14143;SDS011;7152;48.348;10.980;2023-04-25T06:51:09;3.60;;;2.20;;
14143;SDS011;7152;48.348;10.980;2023-04-25T06:53:35;3.63;;;2.07;;
14143;SDS011;7152;48.348;10.980;2023-04-25T06:56:00;2.87;;;2.30;;
14143;SDS011;7152;48.348;10.980;2023-04-25T06:58:26;4.53;;;2.10;;
14143;SDS011;7152;48.348;10.980;2023-04-25T07:00:51;3.33;;;2.47;;
14143;SDS011;7152;48.348;10.980;2023-04-25T07:03:17;4.43;;;2.20;;
14143;SDS011;7152;48.348;10.980;2023-04-25T07:05:43;3.43;;;2.10;;
14143;SDS011;7152;48.348;10.980;2023-04-25T07:08:10;3.10;;;2.17;;
14143;SDS011;7152;48.348;10.980;2023-04-25T07:10:36;2.37;;;2.03;;
14143;SDS011;7152;48.348;10.980;2023-04-25T07:13:01;3.10;;;1.90;;
14143;SDS011;7152;48.348;10.980;2023-04-25T07:15:27;1.70;;;1.60;;
14143;SDS011;7152;48.348;10.980;2023-04-25T07:17:53;2.30;;;1.80;;
14143;SDS011;7152;48.348;10.980;2023-04-25T07:20:18;2.20;;;1.93;;
14143;SDS011;7152;48.348;10.980;2023-04-25T07:22:44;2.50;;;1.87;;
14143;SDS011;7152;48.348;10.980;2023-04-25T07:25:10;2.10;;;1.90;;
14143;SDS011;7152;48.348;10.980;2023-04-25T07:27:35;2.07;;;1.70;;
14143;SDS011;7152;48.348;10.980;2023-04-25T07:30:01;2.20;;;1.93;;
14143;SDS011;7152;48.348;10.980;2023-04-25T07:32:28;2.90;;;2.40;;
14143;SDS011;7152;48.348;10.980;2023-04-25T07:34:53;2.00;;;1.80;;
14143;SDS011;7152;48.348;10.980;2023-04-25T07:37:19;1.60;;;1.50;;
14143;SDS011;7152;48.348;10.980;2023-04-25T07:39:45;2.03;;;1.57;;
14143;SDS011;7152;48.348;10.980;2023-04-25T07:42:13;3.23;;;1.90;;
14143;SDS011;7152;48.348;10.980;2023-04-25T07:44:39;3.50;;;1.80;;
14143;SDS011;7152;48.348;10.980;2023-04-25T07:47:08;3.40;;;1.90;;
14143;SDS011;7152;48.348;10.980;2023-04-25T07:49:34;2.47;;;1.60;;
14143;SDS011;7152;48.348;10.980;2023-04-25T07:52:01;4.50;;;1.80;;
14143;SDS011;7152;48.348;10.980;2023-04-25T07:54:27;2.10;;;1.87;;
14143;SDS011;7152;48.348;10.980;2023-04-25T07:56:53;2.43;;;1.63;;
14143;SDS011;7152;48.348;10.980;2023-04-25T07:59:19;3.20;;;1.93;;
14143;SDS011;7152;48.348;10.980;2023-04-25T08:01:44;2.60;;;1.77;;
14143;SDS011;7152;48.348;10.980;2023-04-25T08:04:10;4.77;;;2.00;;
14143;SDS011;7152;48.348;10.980;2023-04-25T08:06:36;2.17;;;1.97;;
14143;SDS011;7152;48.348;10.980;2023-04-25T08:09:02;2.70;;;1.97;;
14143;SDS011;7152;48.348;10.980;2023-04-25T08:11:28;2.00;;;1.90;;
14143;SDS011;7152;48.348;10.980;2023-04-25T08:13:54;2.97;;;2.00;;
14143;SDS011;7152;48.348;10.980;2023-04-25T08:16:19;2.17;;;1.80;;
14143;SDS011;7152;48.348;10.980;2023-04-25T08:18:45;2.70;;;2.03;;
14143;SDS011;7152;48.348;10.980;2023-04-25T08:21:11;2.40;;;2.20;;
14143;SDS011;7152;48.348;10.980;2023-04-25T08:23:37;3.33;;;2.07;;
14143;SDS011;7152;48.348;10.980;2023-04-25T08:26:03;1.77;;;1.57;;
14143;SDS011;7152;48.348;10.980;2023-04-25T08:28:29;2.27;;;2.07;;
14143;SDS011;7152;48.348;10.980;2023-04-25T08:30:55;2.53;;;1.77;;
14143;SDS011;7152;48.348;10.980;2023-04-25T08:33:21;1.97;;;1.87;;
14143;SDS011;7152;48.348;10.980;2023-04-25T08:35:46;1.80;;;1.70;;
14143;SDS011;7152;48.348;10.980;2023-04-25T08:38:12;2.63;;;1.70;;
14143;SDS011;7152;48.348;10.980;2023-04-25T08:40:38;2.53;;;1.87;;
14143;SDS011;7152;48.348;10.980;2023-04-25T08:43:06;2.23;;;2.00;;
14143;SDS011;7152;48.348;10.980;2023-04-25T08:45:38;2.83;;;1.60;;
14143;SDS011;7152;48.348;10.980;2023-04-25T08:48:10;1.73;;;1.57;;
14143;SDS011;7152;48.348;10.980;2023-04-25T08:50:40;1.80;;;1.30;;
14143;SDS011;7152;48.348;10.980;2023-04-25T08:53:13;2.90;;;1.80;;
14143;SDS011;7152;48.348;10.980;2023-04-25T08:55:45;3.70;;;1.67;;
14143;SDS011;7152;48.348;10.980;2023-04-25T08:58:11;2.60;;;1.83;;
14143;SDS011;7152;48.348;10.980;2023-04-25T09:00:38;2.20;;;1.50;;
14143;SDS011;7152;48.348;10.980;2023-04-25T09:03:04;3.07;;;1.83;;
14143;SDS011;7152;48.348;10.980;2023-04-25T09:05:30;2.90;;;1.97;;
14143;SDS011;7152;48.348;10.980;2023-04-25T09:07:57;2.07;;;1.50;;
14143;SDS011;7152;48.348;10.980;2023-04-25T09:10:23;1.43;;;1.23;;
14143;SDS011;7152;48.348;10.980;2023-04-25T09:13:02;2.17;;;1.77;;
14143;SDS011;7152;48.348;10.980;2023-04-25T09:15:28;3.27;;;1.63;;
14143;SDS011;7152;48.348;10.980;2023-04-25T09:17:55;2.20;;;1.73;;
14143;SDS011;7152;48.348;10.980;2023-04-25T09:20:21;2.37;;;1.47;;
14143;SDS011;7152;48.348;10.980;2023-04-25T09:22:47;1.90;;;1.70;;
14143;SDS011;7152;48.348;10.980;2023-04-25T09:25:12;4.20;;;1.77;;
14143;SDS011;7152;48.348;10.980;2023-04-25T09:27:51;2.13;;;1.80;;
14143;SDS011;7152;48.348;10.980;2023-04-25T09:30:19;1.77;;;1.60;;
14143;SDS011;7152;48.348;10.980;2023-04-25T09:33:13;2.00;;;1.80;;
14143;SDS011;7152;48.348;10.980;2023-04-25T09:35:47;3.20;;;1.60;;
14143;SDS011;7152;48.348;10.980;2023-04-25T09:38:20;3.00;;;1.97;;
14143;SDS011;7152;48.348;10.980;2023-04-25T09:40:46;2.03;;;1.80;;
14143;SDS011;7152;48.348;10.980;2023-04-25T09:43:22;1.93;;;1.67;;
14143;SDS011;7152;48.348;10.980;2023-04-25T09:45:49;1.40;;;1.30;;
14143;SDS011;7152;48.348;10.980;2023-04-25T09:48:19;2.60;;;1.50;;
14143;SDS011;7152;48.348;10.980;2023-04-25T09:53:40;2.70;;;1.63;;
14143;SDS011;7152;48.348;10.980;2023-04-25T09:56:09;2.33;;;1.77;;
14143;SDS011;7152;48.348;10.980;2023-04-25T09:58:36;1.90;;;1.77;;
14143;SDS011;7152;48.348;10.980;2023-04-25T10:01:03;2.50;;;2.10;;
14143;SDS011;7152;48.348;10.980;2023-04-25T10:03:31;3.90;;;1.90;;
14143;SDS011;7152;48.348;10.980;2023-04-25T10:06:01;2.03;;;1.70;;
14143;SDS011;7152;48.348;10.980;2023-04-25T10:08:46;5.17;;;2.17;;
14143;SDS011;7152;48.348;10.980;2023-04-25T10:11:18;1.60;;;1.50;;
14143;SDS011;7152;48.348;10.980;2023-04-25T10:13:46;2.00;;;1.80;;
14143;SDS011;7152;48.348;10.980;2023-04-25T10:16:12;2.80;;;2.33;;
14143;SDS011;7152;48.348;10.980;2023-04-25T10:18:38;2.10;;;1.67;;
14143;SDS011;7152;48.348;10.980;2023-04-25T10:21:04;2.00;;;1.60;;
14143;SDS011;7152;48.348;10.980;2023-04-25T10:23:31;1.60;;;1.50;;
14143;SDS011;7152;48.348;10.980;2023-04-25T10:25:57;5.03;;;2.90;;
14143;SDS011;7152;48.348;10.980;2023-04-25T10:28:23;1.80;;;1.70;;
14143;SDS011;7152;48.348;10.980;2023-04-25T10:31:02;1.97;;;1.60;;
14143;SDS011;7152;48.348;10.980;2023-04-25T10:33:36;1.70;;;1.60;;
14143;SDS011;7152;48.348;10.980;2023-04-25T10:38:35;3.03;;;1.53;;
14143;SDS011;7152;48.348;10.980;2023-04-25T10:41:03;1.60;;;1.50;;
14143;SDS011;7152;48.348;10.980;2023-04-25T10:46:23;0.90;;;0.90;;
14143;SDS011;7152;48.348;10.980;2023-04-25T10:48:59;0.97;;;0.93;;
14143;SDS011;7152;48.348;10.980;2023-04-25T10:54:02;1.80;;;1.30;;
14143;SDS011;7152;48.348;10.980;2023-04-25T10:56:29;1.57;;;1.40;;
14143;SDS011;7152;48.348;10.980;2023-04-25T10:59:14;1.57;;;1.30;;
14143;SDS011;7152;48.348;10.980;2023-04-25T11:01:42;1.23;;;1.10;;
14143;SDS011;7152;48.348;10.980;2023-04-25T11:09:39;1.70;;;1.50;;
14143;SDS011;7152;48.348;10.980;2023-04-25T11:12:07;1.67;;;1.50;;
14143;SDS011;7152;48.348;10.980;2023-04-25T11:14:33;1.37;;;1.07;;
14143;SDS011;7152;48.348;10.980;2023-04-25T11:17:00;2.00;;;1.60;;
14143;SDS011;7152;48.348;10.980;2023-04-25T11:19:28;1.40;;;1.30;;
14143;SDS011;7152;48.348;10.980;2023-04-25T11:21:55;1.87;;;1.60;;
14143;SDS011;7152;48.348;10.980;2023-04-25T11:24:31;2.20;;;1.30;;
14143;SDS011;7152;48.348;10.980;2023-04-25T11:26:59;1.60;;;1.47;;
14143;SDS011;7152;48.348;10.980;2023-04-25T11:29:27;2.10;;;1.67;;
14143;SDS011;7152;48.348;10.980;2023-04-25T11:31:55;2.00;;;1.30;;
14143;SDS011;7152;48.348;10.980;2023-04-25T11:34:25;2.33;;;1.70;;
14143;SDS011;7152;48.348;10.980;2023-04-25T11:36:51;2.27;;;1.87;;
14143;SDS011;7152;48.348;10.980;2023-04-25T11:39:18;2.17;;;1.30;;
14143;SDS011;7152;48.348;10.980;2023-04-25T11:41:44;2.93;;;1.07;;
14143;SDS011;7152;48.348;10.980;2023-04-25T11:44:11;1.00;;;1.00;;
14143;SDS011;7152;48.348;10.980;2023-04-25T11:46:37;1.83;;;1.00;;
14143;SDS011;7152;48.348;10.980;2023-04-25T11:49:02;2.03;;;1.30;;
14143;SDS011;7152;48.348;10.980;2023-04-25T11:51:29;1.53;;;1.43;;
14143;SDS011;7152;48.348;10.980;2023-04-25T11:54:02;2.50;;;1.80;;
14143;SDS011;7152;48.348;10.980;2023-04-25T11:56:28;2.70;;;1.87;;
14143;SDS011;7152;48.348;10.980;2023-04-25T12:03:52;3.17;;;2.47;;
14143;SDS011;7152;48.348;10.980;2023-04-25T12:06:18;3.87;;;2.57;;
14143;SDS011;7152;48.348;10.980;2023-04-25T12:09:00;2.77;;;1.83;;
14143;SDS011;7152;48.348;10.980;2023-04-25T12:11:26;3.73;;;1.97;;
14143;SDS011;7152;48.348;10.980;2023-04-25T12:13:52;1.73;;;1.63;;
14143;SDS011;7152;48.348;10.980;2023-04-25T12:16:18;1.83;;;1.73;;
14143;SDS011;7152;48.348;10.980;2023-04-25T12:18:44;2.57;;;2.20;;
14143;SDS011;7152;48.348;10.980;2023-04-25T12:21:10;2.30;;;2.20;;
14143;SDS011;7152;48.348;10.980;2023-04-25T12:23:38;2.70;;;2.50;;
14143;SDS011;7152;48.348;10.980;2023-04-25T12:26:04;2.83;;;2.57;;
14143;SDS011;7152;48.348;10.980;2023-04-25T12:28:31;4.43;;;3.67;;
14143;SDS011;7152;48.348;10.980;2023-04-25T12:31:04;4.30;;;3.90;;
14143;SDS011;7152;48.348;10.980;2023-04-25T12:33:35;3.67;;;3.37;;
14143;SDS011;7152;48.348;10.980;2023-04-25T12:36:02;2.87;;;2.67;;
14143;SDS011;7152;48.348;10.980;2023-04-25T12:38:38;2.97;;;2.70;;
14143;SDS011;7152;48.348;10.980;2023-04-25T12:41:05;2.50;;;2.30;;
14143;SDS011;7152;48.348;10.980;2023-04-25T12:43:32;2.33;;;2.23;;
14143;SDS011;7152;48.348;10.980;2023-04-25T12:45:58;2.20;;;2.10;;
14143;SDS011;7152;48.348;10.980;2023-04-25T12:48:23;2.60;;;2.40;;
14143;SDS011;7152;48.348;10.980;2023-04-25T12:50:49;2.53;;;2.37;;
14143;SDS011;7152;48.348;10.980;2023-04-25T12:53:17;3.87;;;2.80;;
14143;SDS011;7152;48.348;10.980;2023-04-25T12:55:44;2.67;;;2.47;;
14143;SDS011;7152;48.348;10.980;2023-04-25T12:58:16;2.10;;;1.90;;
14143;SDS011;7152;48.348;10.980;2023-04-25T13:00:43;1.33;;;1.33;;
14143;SDS011;7152;48.348;10.980;2023-04-25T13:03:09;1.30;;;1.20;;
14143;SDS011;7152;48.348;10.980;2023-04-25T13:05:36;3.00;;;1.30;;
14143;SDS011;7152;48.348;10.980;2023-04-25T13:08:02;1.33;;;1.23;;
14143;SDS011;7152;48.348;10.980;2023-04-25T13:10:28;1.30;;;1.20;;
14143;SDS011;7152;48.348;10.980;2023-04-25T13:12:54;0.90;;;0.90;;
14143;SDS011;7152;48.348;10.980;2023-04-25T13:15:20;1.77;;;1.00;;
14143;SDS011;7152;48.348;10.980;2023-04-25T13:17:46;0.83;;;0.83;;
14143;SDS011;7152;48.348;10.980;2023-04-25T13:20:12;1.50;;;1.40;;
14143;SDS011;7152;48.348;10.980;2023-04-25T13:22:39;1.00;;;1.00;;
14143;SDS011;7152;48.348;10.980;2023-04-25T13:25:06;1.20;;;1.20;;
14143;SDS011;7152;48.348;10.980;2023-04-25T13:27:33;1.50;;;1.40;;
14143;SDS011;7152;48.348;10.980;2023-04-25T13:30:01;1.30;;;1.20;;
14143;SDS011;7152;48.348;10.980;2023-04-25T13:32:35;1.30;;;1.30;;
14143;SDS011;7152;48.348;10.980;2023-04-25T13:35:02;1.97;;;1.33;;
14143;SDS011;7152;48.348;10.980;2023-04-25T13:37:29;1.47;;;1.37;;
14143;SDS011;7152;48.348;10.980;2023-04-25T13:39:57;1.43;;;1.40;;
14143;SDS011;7152;48.348;10.980;2023-04-25T13:42:27;2.00;;;1.90;;
14143;SDS011;7152;48.348;10.980;2023-04-25T13:44:53;2.10;;;1.67;;
14143;SDS011;7152;48.348;10.980;2023-04-25T13:47:19;2.27;;;1.77;;
14143;SDS011;7152;48.348;10.980;2023-04-25T13:49:44;2.17;;;2.03;;
14143;SDS011;7152;48.348;10.980;2023-04-25T13:52:10;2.00;;;1.90;;
14143;SDS011;7152;48.348;10.980;2023-04-25T13:54:35;4.33;;;3.93;;
14143;SDS011;7152;48.348;10.980;2023-04-25T13:57:01;2.60;;;2.40;;
14143;SDS011;7152;48.348;10.980;2023-04-25T13:59:27;2.33;;;2.23;;
14143;SDS011;7152;48.348;10.980;2023-04-25T14:01:53;2.70;;;2.50;;
14143;SDS011;7152;48.348;10.980;2023-04-25T14:04:18;3.23;;;3.03;;
14143;SDS011;7152;48.348;10.980;2023-04-25T14:06:44;2.83;;;2.63;;
14143;SDS011;7152;48.348;10.980;2023-04-25T14:09:10;3.73;;;3.43;;
14143;SDS011;7152;48.348;10.980;2023-04-25T14:11:37;3.77;;;3.47;;
14143;SDS011;7152;48.348;10.980;2023-04-25T14:14:03;2.93;;;2.73;;
14143;SDS011;7152;48.348;10.980;2023-04-25T14:16:29;2.93;;;2.73;;
14143;SDS011;7152;48.348;10.980;2023-04-25T14:18:56;2.60;;;2.40;;
14143;SDS011;7152;48.348;10.980;2023-04-25T14:21:22;2.23;;;1.93;;
14143;SDS011;7152;48.348;10.980;2023-04-25T14:23:48;2.20;;;1.93;;
14143;SDS011;7152;48.348;10.980;2023-04-25T14:26:14;2.67;;;2.47;;
14143;SDS011;7152;48.348;10.980;2023-04-25T14:28:39;2.53;;;2.33;;
14143;SDS011;7152;48.348;10.980;2023-04-25T14:31:05;9.67;;;3.50;;
14143;SDS011;7152;48.348;10.980;2023-04-25T14:33:31;3.93;;;3.63;;
14143;SDS011;7152;48.348;10.980;2023-04-25T14:35:56;3.20;;;2.80;;
14143;SDS011;7152;48.348;10.980;2023-04-25T14:38:22;3.10;;;2.80;;
14143;SDS011;7152;48.348;10.980;2023-04-25T14:40:49;3.37;;;3.07;;
14143;SDS011;7152;48.348;10.980;2023-04-25T14:43:15;3.43;;;3.13;;
14143;SDS011;7152;48.348;10.980;2023-04-25T14:45:41;3.03;;;2.83;;
14143;SDS011;7152;48.348;10.980;2023-04-25T14:48:06;3.33;;;2.90;;
14143;SDS011;7152;48.348;10.980;2023-04-25T14:50:32;3.80;;;3.50;;
14143;SDS011;7152;48.348;10.980;2023-04-25T14:52:58;3.37;;;3.07;;
14143;SDS011;7152;48.348;10.980;2023-04-25T14:55:25;3.80;;;3.50;;
14143;SDS011;7152;48.348;10.980;2023-04-25T14:57:53;4.60;;;4.20;;
14143;SDS011;7152;48.348;10.980;2023-04-25T15:00:19;4.53;;;4.17;;
14143;SDS011;7152;48.348;10.980;2023-04-25T15:02:45;4.90;;;4.40;;
14143;SDS011;7152;48.348;10.980;2023-04-25T15:05:12;5.80;;;5.20;;
14143;SDS011;7152;48.348;10.980;2023-04-25T15:07:38;4.83;;;4.43;;
14143;SDS011;7152;48.348;10.980;2023-04-25T15:10:05;4.73;;;4.23;;
14143;SDS011;7152;48.348;10.980;2023-04-25T15:12:42;4.57;;;4.10;;
14143;SDS011;7152;48.348;10.980;2023-04-25T15:15:08;4.90;;;3.63;;
14143;SDS011;7152;48.348;10.980;2023-04-25T15:17:40;4.30;;;3.90;;
14143;SDS011;7152;48.348;10.980;2023-04-25T15:20:07;5.23;;;4.73;;
14143;SDS011;7152;48.348;10.980;2023-04-25T15:22:39;4.03;;;3.73;;
14143;SDS011;7152;48.348;10.980;2023-04-25T15:25:06;5.20;;;4.47;;
14143;SDS011;7152;48.348;10.980;2023-04-25T15:27:33;4.77;;;3.93;;